Portada
METAR-TAF:

METAR-TAF

Aeroports :

Richmond, Austràlia

latitud: 20-42-07S, longitud: 143-06-53E, altitud: 206 m

Observació

L'informe es va fer fa 59 minuts, a les 12:00 UTC
Vent 7 kt del Nord/Nord-Est
Temperatura 26°C
Humitat 79%
Pressió 1010 hPa
Visibilitat 10 km o més

METAR: YRMD 241200Z AUTO 02007KT 9999 // ////// 26/22 Q1010

Hora: 22:59 (12:59 UTC)


TAF: manca

Observacions i pronòstics meteorològics de més de 4000 aeroports (METAR i TAF).

Les estacions disponibles són els punts grocs i vermells al mapa.

Posi el ratolí al punt desitjat per veure el nom de l'estació.

Feu clic per veure les observacions i els pronòstics meteorològics.

Per canviar el mapa: feu clic els botons verds amb una creu de color negre per apropar; al botó verd amb un guió per allunyar la imatge; o en les fletxes verdes per a mapes adjacents.


METAR-TAF: